Time;durP1;ratioP1;P1;durP2;ratioP2;P2;SDS_P1;SDS_P2;PMS_P1;PMS_P2;Temp;Humidity;BMP_temperature;BMP_pressure;BME280_temperature;BME280_humidity;BME280_pressure;Samples;Min_cycle;Max_cycle;Signal;HPM_P1;HPM_P2
2022/11/18 00:00:05;;;;;;;3.00;2.80;;;8.90;99.90;;;;;;4981200;28;20201;-56
2022/11/18 00:02:34;;;;;;;3.43;2.93;;;8.90;99.90;;;;;;4983162;28;20670;-57
2022/11/18 00:05:03;;;;;;;5.10;3.30;;;8.90;99.90;;;;;;4996025;28;20191;-57
2022/11/18 00:07:31;;;;;;;4.47;2.80;;;9.00;99.90;;;;;;4981015;28;20538;-57
2022/11/18 00:10:00;;;;;;;3.43;2.80;;;9.00;99.90;;;;;;4978568;28;20215;-56
2022/11/18 00:15:14;;;;;;;5.23;3.00;;;9.00;99.90;;;;;;4984497;28;20206;-57
2022/11/18 00:17:43;;;;;;;4.27;2.93;;;9.00;99.90;;;;;;4988817;28;20207;-58
2022/11/18 00:20:12;;;;;;;4.57;3.03;;;9.00;99.90;;;;;;4985541;28;20232;-57
2022/11/18 00:22:40;;;;;;;5.33;2.90;;;9.00;99.90;;;;;;4978290;28;20199;-57
2022/11/18 00:25:09;;;;;;;5.17;2.93;;;8.90;99.90;;;;;;4985856;28;20562;-57
2022/11/18 00:27:37;;;;;;;5.63;3.10;;;8.90;99.90;;;;;;4985171;28;20209;-57
2022/11/18 00:30:07;;;;;;;7.27;3.10;;;8.90;99.90;;;;;;4987674;28;20557;-57
2022/11/18 00:32:35;;;;;;;6.93;2.83;;;8.90;99.90;;;;;;4980413;28;20199;-57
2022/11/18 00:35:05;;;;;;;3.87;2.60;;;8.90;99.90;;;;;;4981431;28;20675;-57
2022/11/18 00:37:35;;;;;;;7.20;2.90;;;8.90;99.90;;;;;;4980478;28;20290;-57
2022/11/18 00:40:03;;;;;;;2.90;2.70;;;8.90;99.90;;;;;;4980626;28;20526;-57
2022/11/18 00:45:17;;;;;;;3.93;2.90;;;8.80;99.90;;;;;;4980046;28;20199;-57
2022/11/18 00:47:45;;;;;;;3.50;2.70;;;8.80;99.90;;;;;;4981785;28;20222;-56
2022/11/18 00:50:15;;;;;;;15.30;2.97;;;8.80;99.90;;;;;;4979860;28;20215;-57
2022/11/18 00:52:44;;;;;;;4.57;2.87;;;8.70;99.90;;;;;;4985346;28;20213;-57
2022/11/18 00:55:12;;;;;;;3.43;2.80;;;8.70;99.90;;;;;;4988254;28;20199;-57
2022/11/18 00:57:40;;;;;;;5.63;3.07;;;8.70;99.90;;;;;;4992385;28;20707;-58
2022/11/18 01:00:10;;;;;;;4.33;2.80;;;8.60;99.90;;;;;;4987812;28;20279;-57
2022/11/18 01:02:38;;;;;;;4.17;2.80;;;8.60;99.90;;;;;;4984040;28;20199;-56
2022/11/18 01:05:07;;;;;;;2.50;2.40;;;8.50;99.90;;;;;;4988559;28;20194;-57
2022/11/18 01:07:37;;;;;;;2.93;2.73;;;8.50;99.90;;;;;;4985226;28;20199;-57
2022/11/18 01:10:09;;;;;;;6.63;2.87;;;8.50;99.90;;;;;;4986492;28;20211;-56
2022/11/18 01:15:24;;;;;;;3.23;2.70;;;8.40;99.90;;;;;;4992944;28;20210;-57
2022/11/18 01:17:52;;;;;;;10.23;3.40;;;8.40;99.90;;;;;;4989060;28;20205;-56
2022/11/18 01:20:21;;;;;;;4.70;2.80;;;8.40;99.90;;;;;;4992313;28;20238;-57
2022/11/18 01:22:50;;;;;;;4.33;2.83;;;8.30;99.90;;;;;;4980140;28;20210;-57
2022/11/18 01:25:19;;;;;;;4.40;2.60;;;8.30;99.90;;;;;;4984104;28;20603;-56
2022/11/18 01:27:47;;;;;;;7.27;2.80;;;8.30;99.90;;;;;;4979284;28;20196;-58
2022/11/18 01:30:16;;;;;;;5.57;2.93;;;8.40;99.90;;;;;;4987527;28;20194;-56
2022/11/18 01:32:45;;;;;;;5.33;2.93;;;8.40;99.90;;;;;;4976554;28;20199;-56
2022/11/18 01:35:13;;;;;;;5.03;2.70;;;8.40;99.90;;;;;;4985463;28;20558;-57
2022/11/18 01:37:41;;;;;;;3.03;2.60;;;8.50;99.90;;;;;;4982190;28;20687;-57
2022/11/18 01:40:12;;;;;;;3.80;2.57;;;8.50;99.90;;;;;;4991992;28;20214;-57
2022/11/18 01:42:40;;;;;;;5.53;2.80;;;8.50;99.90;;;;;;4976389;28;20206;-56
2022/11/18 01:45:26;;;;;;;3.03;2.80;;;8.60;99.90;;;;;;4986089;28;20203;-56
2022/11/18 01:48:02;;;;;;;3.90;2.70;;;8.60;99.90;;;;;;4984619;28;20763;-57
2022/11/18 01:50:32;;;;;;;3.60;2.30;;;8.70;99.90;;;;;;4981369;28;20214;-57
2022/11/18 01:53:05;;;;;;;2.50;2.30;;;8.70;99.90;;;;;;5000513;28;20200;-56
2022/11/18 01:55:37;;;;;;;5.47;2.93;;;8.70;99.90;;;;;;5013896;28;20732;-57
2022/11/18 01:58:10;;;;;;;5.10;2.53;;;8.60;99.90;;;;;;5003565;28;20565;-57
2022/11/18 02:00:40;;;;;;;2.87;2.60;;;8.60;99.90;;;;;;4986531;28;20199;-56
2022/11/18 02:03:13;;;;;;;2.93;2.60;;;8.50;99.90;;;;;;4982873;28;20256;-57
2022/11/18 02:05:43;;;;;;;3.63;2.30;;;8.40;99.90;;;;;;4979063;28;20198;-56
2022/11/18 02:08:13;;;;;;;2.80;2.60;;;8.40;99.90;;;;;;4981885;28;20192;-58
2022/11/18 02:10:42;;;;;;;5.73;2.67;;;8.40;99.90;;;;;;4984853;28;20226;-57
2022/11/18 02:13:12;;;;;;;3.00;2.60;;;8.30;99.90;;;;;;5012556;28;20199;-57
2022/11/18 02:15:53;;;;;;;4.70;2.90;;;8.30;99.90;;;;;;4979828;28;20263;-56
2022/11/18 02:18:33;;;;;;;3.83;2.80;;;8.30;99.90;;;;;;4987459;28;20553;-57
2022/11/18 02:21:12;;;;;;;5.37;3.20;;;8.20;99.90;;;;;;4984286;28;20285;-56
2022/11/18 02:24:22;;;;;;;3.70;3.23;;;8.20;99.90;;;;;;4976014;28;20209;-57
2022/11/18 02:27:20;;;;;;;14.13;3.73;;;8.20;99.90;;;;;;4979203;28;20198;-57
2022/11/18 02:29:58;;;;;;;5.23;3.60;;;8.20;99.90;;;;;;4991028;28;20696;-57
2022/11/18 02:32:32;;;;;;;7.43;3.77;;;8.10;99.90;;;;;;4990669;28;20218;-57
2022/11/18 02:35:06;;;;;;;7.03;3.30;;;8.10;99.90;;;;;;4986693;28;20195;-57
2022/11/18 02:37:39;;;;;;;3.17;3.00;;;8.10;99.90;;;;;;4981846;28;20198;-57
2022/11/18 02:40:14;;;;;;;5.30;3.57;;;8.10;99.90;;;;;;4981898;28;20763;-57
2022/11/18 02:42:46;;;;;;;7.90;3.27;;;8.10;99.90;;;;;;4985654;28;20190;-57
2022/11/18 02:45:18;;;;;;;3.63;3.33;;;8.00;99.90;;;;;;4982707;28;20204;-57
2022/11/18 02:47:49;;;;;;;3.30;3.10;;;8.00;99.90;;;;;;4966751;28;20199;-56
2022/11/18 02:50:22;;;;;;;6.13;3.20;;;8.00;99.90;;;;;;4982227;28;20211;-57
2022/11/18 02:52:56;;;;;;;5.63;3.10;;;8.00;99.90;;;;;;4977804;28;20211;-57
2022/11/18 02:55:27;;;;;;;8.00;3.50;;;7.90;99.90;;;;;;4984332;28;20202;-56
2022/11/18 02:57:57;;;;;;;3.77;2.80;;;7.90;99.90;;;;;;4980643;28;20206;-56
2022/11/18 03:00:27;;;;;;;6.17;3.40;;;7.90;99.90;;;;;;4977397;28;20213;-57
2022/11/18 03:02:55;;;;;;;4.63;3.53;;;7.80;99.90;;;;;;4996545;28;20201;-56
2022/11/18 03:05:32;;;;;;;5.30;2.80;;;7.80;99.90;;;;;;4986614;28;20206;-57
2022/11/18 03:08:07;;;;;;;6.73;3.37;;;7.80;99.90;;;;;;4980160;28;20214;-57
2022/11/18 03:10:43;;;;;;;9.53;3.73;;;7.80;99.90;;;;;;4983814;28;20217;-57
2022/11/18 03:13:18;;;;;;;3.00;2.90;;;7.80;99.90;;;;;;4977987;28;20229;-56
2022/11/18 03:16:00;;;;;;;8.10;3.33;;;7.70;99.90;;;;;;4981783;28;20236;-56
2022/11/18 03:18:32;;;;;;;5.87;3.20;;;7.70;99.90;;;;;;4995149;28;20198;-56
2022/11/18 03:21:08;;;;;;;4.73;3.20;;;7.70;99.90;;;;;;4976981;28;20203;-56
2022/11/18 03:23:40;;;;;;;8.70;3.20;;;7.70;99.90;;;;;;4989486;28;20209;-56
2022/11/18 03:26:13;;;;;;;3.47;3.10;;;7.70;99.90;;;;;;4978676;28;20221;-56
2022/11/18 03:28:49;;;;;;;3.20;3.00;;;7.70;99.90;;;;;;4984391;28;20213;-57
2022/11/18 03:31:24;;;;;;;3.50;3.23;;;7.70;99.90;;;;;;4989033;28;20194;-56
2022/11/18 03:33:57;;;;;;;4.87;2.90;;;7.70;99.90;;;;;;4986493;28;20206;-57
2022/11/18 03:36:33;;;;;;;6.30;3.27;;;7.70;99.90;;;;;;4978860;28;20565;-56
2022/11/18 03:39:05;;;;;;;6.23;3.17;;;7.60;99.90;;;;;;4986295;28;20236;-56
2022/11/18 03:41:39;;;;;;;4.23;3.73;;;7.60;99.90;;;;;;4982849;28;20188;-56
2022/11/18 03:44:13;;;;;;;3.33;3.10;;;7.60;99.90;;;;;;4987501;28;20210;-57
2022/11/18 03:46:46;;;;;;;6.27;3.40;;;7.70;99.90;;;;;;4989375;28;20199;-57
2022/11/18 03:49:19;;;;;;;4.10;3.23;;;7.70;99.90;;;;;;4987788;28;20236;-56
2022/11/18 03:51:54;;;;;;;6.30;3.30;;;7.70;99.90;;;;;;4995118;28;20214;-56
2022/11/18 03:54:25;;;;;;;3.10;2.90;;;7.70;99.90;;;;;;4988162;28;20218;-57
2022/11/18 03:56:57;;;;;;;3.50;3.20;;;7.70;99.90;;;;;;4987061;28;20199;-57
2022/11/18 03:59:32;;;;;;;6.40;4.27;;;7.70;99.90;;;;;;4981221;28;20198;-57
2022/11/18 04:02:08;;;;;;;7.83;3.50;;;7.60;99.90;;;;;;4998839;28;20285;-57
2022/11/18 04:04:37;;;;;;;5.00;3.60;;;7.60;99.90;;;;;;4986794;28;20210;-57
2022/11/18 04:07:13;;;;;;;6.10;3.60;;;7.60;99.90;;;;;;4989419;28;20195;-57
2022/11/18 04:09:46;;;;;;;6.10;3.83;;;7.50;99.90;;;;;;4986745;28;20240;-55
2022/11/18 04:12:17;;;;;;;5.57;4.10;;;7.60;99.90;;;;;;4984322;28;20230;-56
2022/11/18 04:14:48;;;;;;;5.03;3.40;;;7.50;99.90;;;;;;4993141;28;20654;-56
2022/11/18 04:17:21;;;;;;;7.83;4.00;;;7.50;99.90;;;;;;4994366;28;20638;-56
2022/11/18 04:19:49;;;;;;;6.07;4.30;;;7.50;99.90;;;;;;5023070;27;20231;-58
2022/11/18 04:22:19;;;;;;;9.27;4.17;;;7.50;99.90;;;;;;4990194;28;20282;-55
2022/11/18 04:24:47;;;;;;;6.63;4.00;;;7.50;99.90;;;;;;4978060;28;20204;-57
2022/11/18 04:27:16;;;;;;;7.37;3.77;;;7.50;99.90;;;;;;4984420;28;20203;-56
2022/11/18 04:29:45;;;;;;;4.90;3.40;;;7.50;99.90;;;;;;4988708;28;20211;-55
2022/11/18 04:32:13;;;;;;;8.67;4.00;;;7.50;99.90;;;;;;4985088;28;20215;-57
2022/11/18 04:34:43;;;;;;;6.63;3.90;;;7.40;99.90;;;;;;4995735;28;20209;-57
2022/11/18 04:37:13;;;;;;;5.70;4.10;;;7.40;99.90;;;;;;4985681;28;20207;-56
2022/11/18 04:39:41;;;;;;;6.80;4.27;;;7.40;99.90;;;;;;4984934;28;20202;-57
2022/11/18 04:42:09;;;;;;;8.17;3.93;;;7.30;99.90;;;;;;4988876;28;20192;-56
2022/11/18 04:44:38;;;;;;;5.93;3.87;;;7.30;99.90;;;;;;4998664;28;20195;-56
2022/11/18 04:47:07;;;;;;;9.20;3.93;;;7.30;99.90;;;;;;4991870;28;20210;-57
2022/11/18 04:49:36;;;;;;;5.40;3.93;;;7.30;99.90;;;;;;4983750;28;20203;-56
2022/11/18 04:52:06;;;;;;;7.77;4.23;;;7.40;99.90;;;;;;4983694;28;20214;-57
2022/11/18 04:54:34;;;;;;;7.60;4.00;;;7.40;99.90;;;;;;4984972;28;20756;-56
2022/11/18 04:57:02;;;;;;;5.90;4.03;;;7.30;99.90;;;;;;4979320;28;20554;-57
2022/11/18 04:59:32;;;;;;;10.27;4.13;;;7.30;99.90;;;;;;4987472;28;20203;-57
2022/11/18 05:02:00;;;;;;;8.67;3.93;;;7.20;99.90;;;;;;4987535;28;20198;-57
2022/11/18 05:04:33;;;;;;;6.07;4.23;;;7.20;99.90;;;;;;4965288;28;20238;-57
2022/11/18 05:07:06;;;;;;;8.40;3.90;;;7.20;99.90;;;;;;5014229;27;20195;-55
2022/11/18 05:09:35;;;;;;;8.63;4.17;;;7.20;99.90;;;;;;4990057;28;20678;-58
2022/11/18 05:14:49;;;;;;;7.73;3.90;;;7.20;99.90;;;;;;4984195;28;20207;-56
2022/11/18 05:17:18;;;;;;;12.87;3.70;;;7.20;99.90;;;;;;4985398;28;20195;-57
2022/11/18 05:19:46;;;;;;;9.43;4.10;;;7.30;99.90;;;;;;4982424;28;20425;-57
2022/11/18 05:22:17;;;;;;;12.33;4.77;;;7.30;99.90;;;;;;4983020;28;20247;-56
2022/11/18 05:24:45;;;;;;;10.27;4.10;;;7.30;99.90;;;;;;4976698;28;20188;-54
2022/11/18 05:27:14;;;;;;;13.80;4.57;;;7.30;99.90;;;;;;4988286;28;20206;-56
2022/11/18 05:29:43;;;;;;;12.93;4.10;;;7.30;99.90;;;;;;4981393;28;20222;-57
2022/11/18 05:32:11;;;;;;;6.97;3.90;;;7.40;99.90;;;;;;4986777;28;20569;-57
2022/11/18 05:34:41;;;;;;;9.87;4.23;;;7.30;99.90;;;;;;4987704;28;20207;-57
2022/11/18 05:37:09;;;;;;;13.07;4.73;;;7.40;99.90;;;;;;4974612;28;20195;-57
2022/11/18 05:39:39;;;;;;;9.00;4.07;;;7.30;99.90;;;;;;4974505;28;20209;-55
2022/11/18 05:44:54;;;;;;;6.43;4.13;;;7.30;99.90;;;;;;4976253;28;20289;-56
2022/11/18 05:47:25;;;;;;;9.37;4.30;;;7.30;99.90;;;;;;4975475;28;20266;-56
2022/11/18 05:49:53;;;;;;;7.73;4.00;;;7.30;99.90;;;;;;4974945;28;20195;-54
2022/11/18 05:52:22;;;;;;;8.87;3.70;;;7.30;99.90;;;;;;4999310;28;20205;-56
2022/11/18 05:54:52;;;;;;;9.30;4.00;;;7.20;99.90;;;;;;5011263;28;20199;-55
2022/11/18 05:57:20;;;;;;;5.23;3.77;;;7.30;99.90;;;;;;4976544;28;20206;-56
2022/11/18 05:59:48;;;;;;;8.60;3.90;;;7.30;99.90;;;;;;4978581;28;20194;-56
2022/11/18 06:02:24;;;;;;;7.17;3.80;;;7.30;99.90;;;;;;4979551;28;20306;-56
2022/11/18 06:04:57;;;;;;;9.50;3.97;;;7.20;99.90;;;;;;4984294;28;20207;-56
2022/11/18 06:07:28;;;;;;;10.37;3.80;;;7.20;99.90;;;;;;4978519;28;20219;-55
2022/11/18 06:10:00;;;;;;;6.60;3.43;;;7.30;99.90;;;;;;4997763;28;20260;-58
2022/11/18 06:12:36;;;;;;;5.70;4.17;;;7.30;99.90;;;;;;4979120;28;20202;-56
2022/11/18 06:15:08;;;;;;;8.03;3.90;;;7.30;99.90;;;;;;4973868;28;20728;-56
2022/11/18 06:17:43;;;;;;;14.00;3.70;;;7.30;99.90;;;;;;5002892;28;20580;-56
2022/11/18 06:20:12;;;;;;;9.27;3.63;;;7.20;99.90;;;;;;4977632;28;20249;-57
2022/11/18 06:22:41;;;;;;;11.60;3.73;;;7.30;99.90;;;;;;4999169;28;20206;-55
2022/11/18 06:25:15;;;;;;;6.97;4.00;;;7.40;99.90;;;;;;4980707;28;20204;-57
2022/11/18 06:27:45;;;;;;;12.30;3.80;;;7.40;99.90;;;;;;4984257;28;20201;-57
2022/11/18 06:30:14;;;;;;;6.73;3.83;;;7.50;99.90;;;;;;4982157;28;20207;-56
2022/11/18 06:32:42;;;;;;;8.33;4.03;;;7.50;99.90;;;;;;4978840;28;20204;-56
2022/11/18 06:35:11;;;;;;;7.50;3.87;;;7.50;99.90;;;;;;4985721;28;20621;-55
2022/11/18 06:37:41;;;;;;;9.87;4.07;;;7.60;99.90;;;;;;4981307;28;20191;-56
2022/11/18 06:40:11;;;;;;;9.73;3.63;;;7.60;99.90;;;;;;4985536;28;20187;-57
2022/11/18 06:45:26;;;;;;;15.13;3.83;;;7.60;99.90;;;;;;4979457;28;20188;-56
2022/11/18 06:47:56;;;;;;;4.00;3.60;;;7.60;99.90;;;;;;4978029;28;20565;-56
2022/11/18 06:50:24;;;;;;;7.50;3.77;;;7.60;99.90;;;;;;4975697;28;20191;-54
2022/11/18 06:52:53;;;;;;;11.80;3.90;;;7.70;99.90;;;;;;5005897;28;20661;-54
2022/11/18 06:55:21;;;;;;;5.27;3.60;;;7.70;99.90;;;;;;5007359;28;20199;-57
2022/11/18 06:57:51;;;;;;;9.40;3.40;;;7.80;99.90;;;;;;4973424;28;20203;-55
2022/11/18 07:00:19;;;;;;;6.57;3.80;;;7.80;99.90;;;;;;4975536;28;20200;-55
2022/11/18 07:02:48;;;;;;;9.43;3.83;;;7.80;99.90;;;;;;4980605;28;20207;-55
2022/11/18 07:05:16;;;;;;;8.73;3.70;;;7.90;99.90;;;;;;4980172;28;20225;-57
2022/11/18 07:07:44;;;;;;;10.80;3.70;;;7.90;99.90;;;;;;4993759;28;20197;-53
2022/11/18 07:10:13;;;;;;;7.97;3.97;;;8.00;99.90;;;;;;4976301;28;20282;-57
2022/11/18 07:12:41;;;;;;;6.50;3.47;;;8.00;99.90;;;;;;4984064;28;20201;-57
2022/11/18 07:15:12;;;;;;;7.53;3.37;;;8.00;99.90;;;;;;4976010;28;20685;-58
2022/11/18 07:17:40;;;;;;;8.37;3.77;;;8.10;99.90;;;;;;4990000;28;20231;-55
2022/11/18 07:20:10;;;;;;;6.53;3.43;;;8.10;99.90;;;;;;4978584;28;20310;-56
2022/11/18 07:22:38;;;;;;;7.83;3.70;;;8.10;99.90;;;;;;4989451;28;20541;-56
2022/11/18 07:25:07;;;;;;;11.17;3.80;;;8.20;99.90;;;;;;4982921;28;20194;-54
2022/11/18 07:27:35;;;;;;;7.20;4.00;;;8.20;99.90;;;;;;4983451;28;20550;-54
2022/11/18 07:30:04;;;;;;;7.90;3.70;;;8.20;99.90;;;;;;4988136;28;20199;-57
2022/11/18 07:32:34;;;;;;;9.13;3.90;;;8.30;99.90;;;;;;5008900;28;20199;-56
2022/11/18 07:35:02;;;;;;;8.07;3.77;;;8.30;99.90;;;;;;4986957;28;20226;-56
2022/11/18 07:37:31;;;;;;;9.67;3.93;;;8.30;99.90;;;;;;4983936;28;20198;-56
2022/11/18 07:39:59;;;;;;;11.33;4.27;;;8.30;99.90;;;;;;4980906;28;20282;-53
2022/11/18 07:42:27;;;;;;;13.87;4.23;;;8.30;99.90;;;;;;4987124;28;20187;-57
2022/11/18 07:44:56;;;;;;;9.57;4.60;;;8.30;99.90;;;;;;4976177;28;20195;-55
2022/11/18 07:47:24;;;;;;;5.10;4.00;;;8.30;99.90;;;;;;4978678;28;20218;-55
2022/11/18 07:49:53;;;;;;;8.27;4.00;;;8.30;99.90;;;;;;4979085;28;20201;-56
2022/11/18 07:52:22;;;;;;;6.53;4.00;;;8.30;99.90;;;;;;4979890;28;20717;-56
2022/11/18 07:54:51;;;;;;;8.43;4.47;;;8.30;99.90;;;;;;4983551;28;20260;-57
2022/11/18 07:57:21;;;;;;;8.10;4.33;;;8.40;99.90;;;;;;4987168;28;20206;-57
2022/11/18 07:59:49;;;;;;;7.47;4.40;;;8.30;99.90;;;;;;4988726;28;20197;-57
2022/11/18 08:02:18;;;;;;;11.60;3.77;;;8.30;99.90;;;;;;4987502;28;20202;-56
2022/11/18 08:04:46;;;;;;;9.87;4.13;;;8.30;99.90;;;;;;4979129;28;20195;-56
2022/11/18 08:07:16;;;;;;;7.00;4.23;;;8.30;99.90;;;;;;4980519;28;20211;-54
2022/11/18 08:09:44;;;;;;;9.57;4.10;;;8.40;99.90;;;;;;4992149;28;20233;-56
2022/11/18 08:12:13;;;;;;;10.77;4.37;;;8.40;99.90;;;;;;4985301;28;20693;-57
2022/11/18 08:14:41;;;;;;;8.87;4.10;;;8.40;99.90;;;;;;4985604;28;20226;-56
2022/11/18 08:17:09;;;;;;;10.97;4.00;;;8.40;99.90;;;;;;4992819;28;20213;-57
2022/11/18 08:19:38;;;;;;;9.67;4.00;;;8.40;99.90;;;;;;4988681;28;20235;-57
2022/11/18 08:22:06;;;;;;;8.93;4.13;;;8.50;99.90;;;;;;4977094;28;20198;-55
2022/11/18 08:24:36;;;;;;;13.93;4.80;;;8.50;99.90;;;;;;4982188;28;20707;-57
2022/11/18 08:27:04;;;;;;;7.60;4.17;;;8.50;99.90;;;;;;4988340;28;20714;-55
2022/11/18 08:29:33;;;;;;;5.47;3.83;;;8.50;99.90;;;;;;4981275;28;20802;-56
2022/11/18 08:32:01;;;;;;;11.10;4.17;;;8.50;99.90;;;;;;4983311;28;20667;-57
2022/11/18 08:34:30;;;;;;;4.53;3.70;;;8.60;99.90;;;;;;4980558;28;20315;-57
2022/11/18 08:36:58;;;;;;;5.00;3.93;;;8.60;99.90;;;;;;4977867;28;20199;-56
2022/11/18 08:39:26;;;;;;;13.00;4.17;;;8.60;99.90;;;;;;4991765;28;20268;-56
2022/11/18 08:41:58;;;;;;;14.53;4.07;;;8.60;99.90;;;;;;4995820;28;20569;-55
2022/11/18 08:44:26;;;;;;;9.80;3.87;;;8.70;99.90;;;;;;4988874;28;20204;-57
2022/11/18 08:46:55;;;;;;;6.67;3.73;;;8.80;99.90;;;;;;4996110;28;20536;-57
2022/11/18 08:49:24;;;;;;;6.83;3.73;;;8.80;99.90;;;;;;4973095;28;20598;-55
2022/11/18 08:51:59;;;;;;;6.73;4.13;;;8.80;99.90;;;;;;4978593;28;20518;-56
2022/11/18 08:54:28;;;;;;;12.73;4.47;;;8.80;99.90;;;;;;4979767;28;20218;-57
2022/11/18 08:56:57;;;;;;;9.77;4.00;;;8.80;99.90;;;;;;4988369;28;20187;-57
2022/11/18 08:59:26;;;;;;;7.87;4.20;;;8.80;99.90;;;;;;4980243;28;20204;-57
2022/11/18 09:01:54;;;;;;;8.27;4.33;;;8.90;99.90;;;;;;5011268;28;20259;-57
2022/11/18 09:04:23;;;;;;;8.07;4.00;;;8.90;99.90;;;;;;4986931;28;20218;-57
2022/11/18 09:06:51;;;;;;;12.47;3.80;;;8.90;99.90;;;;;;4981643;28;20585;-57
2022/11/18 09:09:20;;;;;;;11.97;3.73;;;8.90;99.90;;;;;;4988189;28;20195;-54
2022/11/18 09:11:48;;;;;;;6.33;3.77;;;8.90;99.90;;;;;;4985345;28;20204;-58
2022/11/18 09:14:18;;;;;;;6.23;3.80;;;8.80;99.90;;;;;;4980752;28;20221;-56
2022/11/18 09:17:07;;;;;;;9.60;3.60;;;8.90;99.90;;;;;;4982303;28;20282;-57
2022/11/18 09:19:35;;;;;;;11.80;3.67;;;8.90;99.90;;;;;;4977830;28;20235;-56
2022/11/18 09:22:19;;;;;;;7.63;3.57;;;9.00;99.90;;;;;;4974813;28;20293;-57
2022/11/18 09:24:47;;;;;;;6.93;3.40;;;9.10;99.90;;;;;;4981564;28;20202;-57
2022/11/18 09:27:15;;;;;;;7.50;3.70;;;9.20;99.90;;;;;;4980691;28;20203;-58
2022/11/18 09:29:46;;;;;;;9.37;3.53;;;9.30;99.90;;;;;;4977943;28;20257;-57
2022/11/18 09:32:15;;;;;;;9.77;3.60;;;9.30;99.90;;;;;;4990469;28;20239;-56
2022/11/18 09:34:43;;;;;;;8.83;3.40;;;9.40;99.90;;;;;;5011297;28;20610;-57
2022/11/18 09:37:12;;;;;;;6.77;3.77;;;9.40;99.90;;;;;;4987375;28;20648;-56
2022/11/18 09:39:40;;;;;;;9.13;3.63;;;9.40;99.90;;;;;;4979115;28;20210;-57
2022/11/18 09:42:32;;;;;;;6.37;3.40;;;9.60;99.90;;;;;;4984505;28;20261;-57
2022/11/18 09:45:19;;;;;;;8.67;3.50;;;9.60;99.90;;;;;;4972352;28;20202;-57
2022/11/18 09:47:57;;;;;;;9.50;3.17;;;9.60;99.90;;;;;;4984731;28;20199;-57
2022/11/18 09:50:26;;;;;;;6.80;3.03;;;9.70;99.90;;;;;;4976989;28;20253;-57
2022/11/18 09:53:20;;;;;;;4.80;2.70;;;9.70;99.90;;;;;;4982415;28;20430;-57
2022/11/18 09:55:50;;;;;;;7.53;3.37;;;9.80;99.90;;;;;;4974608;28;20210;-56
2022/11/18 09:58:24;;;;;;;7.33;3.17;;;9.80;99.90;;;;;;4976447;28;20192;-58
2022/11/18 10:00:54;;;;;;;10.73;3.33;;;9.90;99.90;;;;;;4985382;28;20198;-57
2022/11/18 10:03:28;;;;;;;5.70;2.70;;;9.90;99.90;;;;;;4981045;28;20242;-56
2022/11/18 10:06:01;;;;;;;3.40;3.10;;;10.00;99.90;;;;;;4985439;28;20203;-57
2022/11/18 10:08:33;;;;;;;4.37;2.70;;;10.10;99.90;;;;;;4976876;28;20199;-56
2022/11/18 10:11:06;;;;;;;6.93;2.70;;;10.10;99.90;;;;;;4972884;28;20244;-57
2022/11/18 10:13:47;;;;;;;10.53;4.03;;;10.20;99.90;;;;;;4981340;28;20539;-56
2022/11/18 10:16:25;;;;;;;10.23;3.37;;;10.20;99.90;;;;;;5009177;28;20212;-58
2022/11/18 10:19:02;;;;;;;9.53;3.50;;;10.20;99.90;;;;;;4984135;28;20321;-57
2022/11/18 10:21:44;;;;;;;5.43;2.63;;;10.10;99.90;;;;;;4983815;28;20202;-57
2022/11/18 10:24:17;;;;;;;4.83;2.70;;;10.10;99.90;;;;;;4976962;28;20211;-57
2022/11/18 10:26:46;;;;;;;6.77;2.80;;;10.10;99.90;;;;;;4981501;28;20206;-57
2022/11/18 10:29:15;;;;;;;8.00;2.80;;;10.00;99.90;;;;;;4976545;28;20203;-57
2022/11/18 10:31:57;;;;;;;4.00;2.57;;;10.00;99.90;;;;;;4996014;28;20195;-58
2022/11/18 10:34:32;;;;;;;9.70;3.10;;;9.90;99.90;;;;;;4977865;28;20521;-56
2022/11/18 10:37:03;;;;;;;5.57;2.70;;;9.90;99.90;;;;;;4990664;28;20253;-57
2022/11/18 10:39:32;;;;;;;5.57;2.70;;;9.90;99.90;;;;;;4980393;28;20240;-57
2022/11/18 10:42:02;;;;;;;7.40;2.90;;;9.90;99.90;;;;;;4983443;28;20199;-57
2022/11/18 10:44:34;;;;;;;7.80;2.80;;;9.90;99.90;;;;;;4983220;28;20202;-55
2022/11/18 10:47:22;;;;;;;9.20;2.80;;;9.90;99.90;;;;;;4978983;28;20214;-57
2022/11/18 10:49:51;;;;;;;7.73;2.67;;;9.90;99.90;;;;;;4991158;28;20280;-57
2022/11/18 10:52:20;;;;;;;4.17;2.50;;;9.90;99.90;;;;;;4981229;28;20206;-57
2022/11/18 10:55:20;;;;;;;4.23;2.70;;;10.00;99.90;;;;;;4984177;28;20676;-58
2022/11/18 10:57:52;;;;;;;5.50;2.83;;;10.00;99.90;;;;;;4982554;28;20227;-57
2022/11/18 11:00:36;;;;;;;5.87;2.97;;;10.00;99.90;;;;;;4990435;28;20562;-57
2022/11/18 11:03:25;;;;;;;3.00;2.60;;;10.10;99.90;;;;;;4980956;28;20574;-57
2022/11/18 11:06:37;;;;;;;4.63;2.47;;;10.20;99.90;;;;;;5007319;28;20199;-55
2022/11/18 11:09:09;;;;;;;4.03;2.60;;;10.20;99.90;;;;;;4977523;28;20619;-57
2022/11/18 11:11:42;;;;;;;3.37;2.53;;;10.20;99.90;;;;;;4985624;28;20207;-57
2022/11/18 11:14:19;;;;;;;2.83;2.50;;;10.20;99.90;;;;;;4976931;28;20291;-58
2022/11/18 11:16:53;;;;;;;10.17;2.67;;;10.20;99.90;;;;;;4978257;28;20305;-58
2022/11/18 11:19:27;;;;;;;5.47;2.63;;;10.20;99.90;;;;;;4972037;28;20230;-57
2022/11/18 11:21:57;;;;;;;6.33;2.77;;;10.20;99.90;;;;;;4983967;28;20204;-56
2022/11/18 11:24:28;;;;;;;4.87;2.43;;;10.20;99.90;;;;;;4982379;28;20206;-56
2022/11/18 11:27:10;;;;;;;6.20;2.70;;;10.20;99.90;;;;;;4987788;28;20191;-58
2022/11/18 11:30:13;;;;;;;4.03;2.50;;;10.20;99.90;;;;;;4993747;28;20194;-58
2022/11/18 11:33:18;;;;;;;7.33;2.63;;;10.20;99.90;;;;;;4983724;28;20202;-57
2022/11/18 11:36:09;;;;;;;4.40;2.90;;;10.20;99.90;;;;;;4985764;28;20292;-58
2022/11/18 11:38:59;;;;;;;6.13;2.60;;;10.10;99.90;;;;;;4994815;28;20257;-57
2022/11/18 11:41:41;;;;;;;7.87;2.50;;;10.10;99.90;;;;;;4984164;28;20272;-58
2022/11/18 11:44:41;;;;;;;3.57;3.10;;;10.10;99.90;;;;;;4985898;28;20661;-57
2022/11/18 11:50:14;;;;;;;6.83;2.70;;;10.10;99.90;;;;;;5010460;28;20199;-57
2022/11/18 11:52:50;;;;;;;6.47;2.80;;;10.00;99.90;;;;;;5018854;28;20201;-57
2022/11/18 11:55:25;;;;;;;5.57;2.70;;;10.10;99.90;;;;;;4987288;28;20202;-57
2022/11/18 11:58:09;;;;;;;5.97;2.40;;;10.10;99.90;;;;;;4988453;28;20212;-57
2022/11/18 12:00:43;;;;;;;4.50;3.00;;;10.20;99.90;;;;;;4985215;28;20678;-56
2022/11/18 12:03:24;;;;;;;9.67;2.83;;;10.20;99.90;;;;;;4992126;28;20199;-58
2022/11/18 12:05:52;;;;;;;6.90;2.97;;;10.20;99.90;;;;;;5005177;28;20183;-57
2022/11/18 12:08:24;;;;;;;6.30;2.70;;;10.20;99.90;;;;;;4981827;28;20203;-57
2022/11/18 12:10:56;;;;;;;5.40;2.73;;;10.20;99.90;;;;;;4979773;28;20246;-57
2022/11/18 12:13:32;;;;;;;4.87;3.23;;;10.20;99.90;;;;;;4982657;28;20200;-57
2022/11/18 12:16:15;;;;;;;3.73;2.50;;;10.20;99.90;;;;;;4988530;28;20214;-58
2022/11/18 12:18:47;;;;;;;3.77;2.53;;;10.30;99.90;;;;;;5009698;28;20230;-57
2022/11/18 12:21:48;;;;;;;5.30;2.70;;;10.30;99.90;;;;;;4979492;28;20199;-57
2022/11/18 12:24:36;;;;;;;4.60;2.97;;;10.30;99.90;;;;;;4987958;28;20218;-57
2022/11/18 12:27:12;;;;;;;4.73;2.70;;;10.30;99.90;;;;;;4976412;28;20684;-58
2022/11/18 12:29:55;;;;;;;4.57;2.73;;;10.40;99.90;;;;;;4981636;28;20207;-58
2022/11/18 12:32:33;;;;;;;6.40;2.93;;;10.30;99.90;;;;;;4983442;28;20195;-58
2022/11/18 12:35:05;;;;;;;6.07;2.70;;;10.40;99.90;;;;;;4977349;28;20198;-57
2022/11/18 12:37:58;;;;;;;4.73;2.97;;;10.40;99.90;;;;;;4985461;28;20565;-57
2022/11/18 12:40:40;;;;;;;6.00;3.20;;;10.50;99.90;;;;;;4983257;28;20199;-57
2022/11/18 12:44:00;;;;;;;17.57;9.27;;;10.50;99.90;;;;;;4987307;28;20198;-57
2022/11/18 12:46:48;;;;;;;33.40;17.53;;;10.60;99.90;;;;;;4924880;28;20571;-58
2022/11/18 12:49:53;;;;;;;9.77;6.23;;;10.70;99.90;;;;;;4976596;28;20216;-58
2022/11/18 12:52:51;;;;;;;17.93;11.50;;;10.70;99.90;;;;;;4991696;28;20545;-57
2022/11/18 12:55:26;;;;;;;11.23;10.00;;;10.90;99.90;;;;;;4988140;28;20195;-57
2022/11/18 12:57:56;;;;;;;5.70;3.50;;;10.90;99.90;;;;;;4983825;28;20207;-57
2022/11/18 13:00:50;;;;;;;12.97;5.37;;;10.90;99.90;;;;;;4989464;28;20210;-58
2022/11/18 13:03:27;;;;;;;13.97;8.30;;;11.00;99.90;;;;;;4989080;28;20521;-57
2022/11/18 13:06:06;;;;;;;23.77;12.80;;;11.10;99.90;;;;;;4998764;28;20270;-58
2022/11/18 13:08:35;;;;;;;22.17;11.43;;;11.20;99.90;;;;;;4988838;28;20736;-58
2022/11/18 13:19:30;;;;;;;7.60;5.00;;;11.60;99.90;;;;;;4988346;28;20765;-57
2022/11/18 13:24:49;;;;;;;6.47;3.30;;;11.60;99.90;;;;;;4976522;28;20199;-59
2022/11/18 13:27:27;;;;;;;23.17;17.30;;;11.60;99.90;;;;;;4983736;28;20212;-58
2022/11/18 13:30:04;;;;;;;7.27;3.83;;;11.70;99.90;;;;;;4989839;28;20203;-58
2022/11/18 13:32:32;;;;;;;13.40;6.53;;;11.70;99.90;;;;;;4987732;28;20202;-57
2022/11/18 13:35:11;;;;;;;5.83;3.73;;;11.70;99.90;;;;;;4990156;28;20594;-58
2022/11/18 13:37:50;;;;;;;11.50;4.40;;;11.70;99.90;;;;;;4975592;28;20670;-57
2022/11/18 13:40:25;;;;;;;8.07;3.10;;;11.80;99.90;;;;;;5034127;28;20206;-58
2022/11/18 13:42:54;;;;;;;4.53;2.77;;;11.80;99.90;;;;;;4992422;28;20641;-58
2022/11/18 13:45:28;;;;;;;4.97;2.50;;;11.90;99.90;;;;;;5002298;28;20199;-58
2022/11/18 13:48:01;;;;;;;12.30;6.80;;;11.90;99.90;;;;;;4983802;28;20278;-58
2022/11/18 13:50:33;;;;;;;7.33;6.20;;;11.90;99.90;;;;;;4990157;28;20205;-58
2022/11/18 13:53:09;;;;;;;4.60;3.63;;;11.90;99.90;;;;;;5006705;28;20226;-58